Time;durP1;ratioP1;P1;durP2;ratioP2;P2;SDS_P1;SDS_P2;PMS_P1;PMS_P2;Temp;Humidity;BMP_temperature;BMP_pressure;BME280_temperature;BME280_humidity;BME280_pressure;Samples;Min_cycle;Max_cycle;Signal;HPM_P1;HPM_P2
2021/04/15 00:01:58;;;;;;;5.63;3.90;;;;;;;1.49;100.00;102265.25;4896266;29;20616;-69
2021/04/15 00:04:26;;;;;;;4.67;3.03;;;;;;;1.30;100.00;102267.50;4915047;29;20192;-69
2021/04/15 00:06:52;;;;;;;4.77;3.13;;;;;;;1.23;100.00;102264.69;4882066;29;20220;-69
2021/04/15 00:09:19;;;;;;;6.03;3.07;;;;;;;1.27;100.00;102267.84;4898431;29;20212;-69
2021/04/15 00:11:45;;;;;;;5.17;3.43;;;;;;;1.23;100.00;102258.50;4865449;29;20228;-71
2021/04/15 00:14:14;;;;;;;6.93;3.80;;;;;;;1.22;100.00;102271.03;4898186;29;20635;-69
2021/04/15 00:16:40;;;;;;;8.27;3.80;;;;;;;1.34;100.00;102269.66;4882124;29;20239;-69
2021/04/15 00:19:06;;;;;;;6.20;3.73;;;;;;;1.32;100.00;102265.47;4897712;29;20232;-68
2021/04/15 00:21:31;;;;;;;6.37;4.40;;;;;;;1.24;100.00;102265.50;4879795;29;20220;-68
2021/04/15 00:23:57;;;;;;;7.60;4.00;;;;;;;1.13;100.00;102259.72;4896237;29;20821;-68
2021/04/15 00:26:28;;;;;;;4.90;4.40;;;;;;;0.95;100.00;102256.41;4913692;29;20240;-68
2021/04/15 00:28:54;;;;;;;8.57;4.70;;;;;;;1.01;100.00;102269.09;4913449;29;20209;-69
2021/04/15 00:31:20;;;;;;;7.97;4.30;;;;;;;1.09;100.00;102258.38;4912813;29;20288;-69
2021/04/15 00:33:48;;;;;;;5.37;4.00;;;;;;;0.88;100.00;102250.94;4897328;29;20185;-69
2021/04/15 00:36:14;;;;;;;6.23;4.53;;;;;;;0.94;100.00;102260.09;4912853;29;20260;-69
2021/04/15 00:38:44;;;;;;;5.90;4.33;;;;;;;0.85;100.00;102259.28;4913367;29;20208;-69
2021/04/15 00:41:10;;;;;;;6.33;3.77;;;;;;;0.68;100.00;102259.50;4912931;29;20232;-69
2021/04/15 00:43:39;;;;;;;5.97;4.07;;;;;;;0.74;100.00;102264.16;4913007;29;20184;-69
2021/04/15 00:46:37;;;;;;;5.60;4.30;;;;;;;0.73;100.00;102257.13;4897492;29;20664;-69
2021/04/15 00:49:02;;;;;;;5.67;4.40;;;;;;;0.71;100.00;102261.81;4884099;29;20243;-69
2021/04/15 00:51:34;;;;;;;5.17;3.80;;;;;;;0.76;100.00;102265.66;4923135;29;20227;-71
2021/04/15 00:54:08;;;;;;;6.23;4.20;;;;;;;0.81;100.00;102249.13;4911756;29;20243;-71
2021/04/15 00:56:34;;;;;;;8.03;4.53;;;;;;;0.73;100.00;102253.63;4909190;29;20239;-70
2021/04/15 00:58:59;;;;;;;9.47;4.67;;;;;;;0.69;100.00;102263.81;4894601;29;20196;-71
2021/04/15 01:01:25;;;;;;;5.70;4.50;;;;;;;0.65;100.00;102265.16;4924755;29;20236;-70
2021/04/15 01:03:50;;;;;;;8.33;5.00;;;;;;;0.60;100.00;102267.50;4889851;29;20199;-70
2021/04/15 01:06:18;;;;;;;7.90;4.80;;;;;;;0.44;100.00;102262.19;4904635;29;20299;-69
2021/04/15 01:08:44;;;;;;;7.50;4.77;;;;;;;0.47;100.00;102271.72;4904338;29;20235;-69
2021/04/15 01:11:37;;;;;;;8.77;4.80;;;;;;;0.59;100.00;102273.03;4917493;29;20616;-69
2021/04/15 01:14:05;;;;;;;12.37;4.63;;;;;;;0.40;100.00;102271.56;4927695;29;20263;-71
2021/04/15 01:16:37;;;;;;;7.47;4.30;;;;;;;0.23;100.00;102276.22;4916245;29;20271;-69
2021/04/15 01:19:21;;;;;;;8.27;4.93;;;;;;;0.18;100.00;102275.88;4882173;29;20790;-71
2021/04/15 01:21:47;;;;;;;7.67;4.67;;;;;;;0.09;100.00;102274.19;4880542;29;20671;-69
2021/04/15 01:24:17;;;;;;;7.03;4.60;;;;;;;0.25;100.00;102276.88;4898851;29;20185;-69
2021/04/15 01:27:05;;;;;;;7.53;5.23;;;;;;;0.38;100.00;102264.69;4898364;29;20737;-70
2021/04/15 01:29:54;;;;;;;9.83;4.93;;;;;;;0.39;100.00;102267.19;4897228;29;20755;-70
2021/04/15 01:32:26;;;;;;;8.23;4.93;;;;;;;0.39;100.00;102271.72;4883290;29;20715;-70
2021/04/15 01:35:11;;;;;;;6.67;5.07;;;;;;;0.27;100.00;102269.53;4894596;29;20185;-69
2021/04/15 01:37:49;;;;;;;9.50;4.97;;;;;;;0.23;100.00;102265.53;4902335;29;20705;-70
2021/04/15 01:40:22;;;;;;;8.50;5.20;;;;;;;0.38;100.00;102262.03;4917166;29;20216;-69
2021/04/15 01:42:49;;;;;;;9.07;5.70;;;;;;;0.22;100.00;102271.88;4899786;29;20224;-70
2021/04/15 01:45:17;;;;;;;7.43;5.80;;;;;;;0.13;100.00;102267.56;4885686;29;20224;-70
2021/04/15 01:48:06;;;;;;;7.13;5.53;;;;;;;0.31;100.00;102268.19;4896877;29;20192;-71
2021/04/15 01:50:34;;;;;;;10.23;5.50;;;;;;;0.31;100.00;102277.03;4896438;29;20610;-69
2021/04/15 01:53:08;;;;;;;11.27;6.73;;;;;;;0.17;100.00;102269.72;4905667;29;20212;-70
2021/04/15 01:56:11;;;;;;;10.83;6.10;;;;;;;0.18;100.00;102281.22;4873811;29;20228;-70
2021/04/15 01:58:47;;;;;;;11.67;6.50;;;;;;;0.23;100.00;102279.72;4915774;29;20204;-70
2021/04/15 02:01:15;;;;;;;14.90;6.93;;;;;;;0.27;100.00;102277.56;4905125;29;20228;-69
2021/04/15 02:03:41;;;;;;;9.13;6.43;;;;;;;0.05;100.00;102278.19;4882803;29;20196;-70
2021/04/15 02:06:09;;;;;;;9.83;6.27;;;;;;;0.13;100.00;102278.22;4882874;29;20235;-70
2021/04/15 02:08:41;;;;;;;11.17;6.27;;;;;;;0.16;100.00;102283.22;4884132;29;20721;-70
2021/04/15 02:11:11;;;;;;;10.40;7.00;;;;;;;0.24;100.00;102291.22;4899144;29;20235;-70
2021/04/15 02:13:40;;;;;;;11.17;7.63;;;;;;;0.04;100.00;102281.91;4883354;29;20199;-70
2021/04/15 02:16:10;;;;;;;12.60;7.80;;;;;;;-0.19;100.00;102277.34;4883169;29;20232;-70
2021/04/15 02:19:03;;;;;;;10.60;6.53;;;;;;;-0.23;100.00;102282.16;4914990;29;20200;-70
2021/04/15 02:21:41;;;;;;;10.63;7.10;;;;;;;-0.01;100.00;102286.88;4914601;29;20730;-70
2021/04/15 02:24:37;;;;;;;8.80;6.87;;;;;;;-0.25;100.00;102288.66;4914670;29;20219;-69
2021/04/15 02:27:12;;;;;;;14.53;7.03;;;;;;;-0.09;100.00;102281.53;4886665;29;20311;-70
2021/04/15 02:29:41;;;;;;;7.23;6.47;;;;;;;-0.26;100.00;102287.81;4896028;29;20212;-70
2021/04/15 02:32:33;;;;;;;10.17;6.87;;;;;;;-0.25;100.00;102284.16;4879735;29;20231;-69
2021/04/15 02:35:15;;;;;;;10.63;6.83;;;;;;;-0.37;100.00;102293.50;4847439;29;20201;-71
2021/04/15 02:37:45;;;;;;;10.43;7.07;;;;;;;-0.30;100.00;102285.66;4901638;29;20697;-70
2021/04/15 02:40:14;;;;;;;11.10;6.83;;;;;;;-0.32;100.00;102288.47;4882652;29;20251;-70
2021/04/15 02:42:42;;;;;;;10.33;7.03;;;;;;;-0.37;100.00;102280.16;4897657;29;20283;-70
2021/04/15 02:45:38;;;;;;;11.40;7.83;;;;;;;-0.31;100.00;102284.81;4898853;29;20563;-69
2021/04/15 02:48:13;;;;;;;8.03;6.07;;;;;;;-0.37;100.00;102290.81;4898923;29;20195;-70
2021/04/15 02:50:39;;;;;;;8.97;6.30;;;;;;;-0.36;100.00;102287.13;4913974;29;20288;-68
2021/04/15 02:53:18;;;;;;;9.00;6.50;;;;;;;-0.30;100.00;102286.47;4882215;29;20238;-69
2021/04/15 02:55:48;;;;;;;9.97;5.60;;;;;;;-0.36;100.00;102297.81;4913436;29;20789;-70
2021/04/15 02:58:23;;;;;;;14.03;6.13;;;;;;;-0.39;100.00;102292.78;4882885;29;20720;-69
2021/04/15 03:00:49;;;;;;;7.20;5.73;;;;;;;-0.23;100.00;102290.16;4913855;29;20227;-69
2021/04/15 03:03:18;;;;;;;8.87;5.73;;;;;;;-0.24;100.00;102295.66;4913372;29;20560;-69
2021/04/15 03:05:58;;;;;;;7.40;5.73;;;;;;;-0.10;100.00;102293.19;4898325;29;20224;-70
2021/04/15 03:08:24;;;;;;;11.17;6.57;;;;;;;-0.08;100.00;102291.19;4902899;29;20678;-69
2021/04/15 03:10:51;;;;;;;12.83;6.93;;;;;;;-0.18;100.00;102290.53;4905047;29;20220;-69
2021/04/15 03:13:22;;;;;;;11.90;7.67;;;;;;;-0.29;100.00;102287.34;4910622;29;20196;-69
2021/04/15 03:15:56;;;;;;;11.40;6.83;;;;;;;-0.33;100.00;102292.16;4913456;29;20250;-70
2021/04/15 03:18:41;;;;;;;12.33;7.77;;;;;;;-0.21;100.00;102292.69;4895286;29;20185;-70
2021/04/15 03:21:39;;;;;;;10.70;7.43;;;;;;;-0.23;100.00;102297.34;4893780;29;20228;-69
2021/04/15 03:24:10;;;;;;;11.13;7.40;;;;;;;-0.11;100.00;102296.88;4892659;29;20207;-70
2021/04/15 03:26:57;;;;;;;11.93;7.23;;;;;;;-0.23;100.00;102303.50;4893852;29;20229;-69
2021/04/15 03:29:52;;;;;;;13.73;7.80;;;;;;;-0.19;100.00;102302.19;4863776;29;20242;-70
2021/04/15 03:32:41;;;;;;;10.47;8.07;;;;;;;-0.20;100.00;102297.00;4881186;29;20231;-69
2021/04/15 03:35:14;;;;;;;10.83;8.23;;;;;;;-0.22;100.00;102305.19;4881575;29;20223;-70
2021/04/15 03:37:44;;;;;;;14.57;8.03;;;;;;;-0.50;100.00;102299.44;4882173;29;20236;-70
2021/04/15 03:40:10;;;;;;;14.47;8.27;;;;;;;-0.62;100.00;102295.41;4882214;29;20690;-69
2021/04/15 03:42:41;;;;;;;12.43;7.90;;;;;;;-0.38;100.00;102302.47;4897023;29;20199;-69
2021/04/15 03:45:31;;;;;;;11.27;7.97;;;;;;;-0.53;100.00;102305.06;4897584;29;20531;-69
2021/04/15 03:48:01;;;;;;;12.13;8.57;;;;;;;-0.61;100.00;102303.22;4892100;29;20227;-69
2021/04/15 03:50:31;;;;;;;13.93;8.40;;;;;;;-0.69;100.00;102297.03;4879390;29;20833;-69
2021/04/15 03:53:08;;;;;;;12.87;8.07;;;;;;;-0.62;100.00;102300.72;4892917;29;20200;-69
2021/04/15 03:55:37;;;;;;;11.60;8.07;;;;;;;-0.48;100.00;102302.75;4900639;29;20633;-68
2021/04/15 03:58:25;;;;;;;13.23;8.10;;;;;;;-0.53;100.00;102305.06;4889844;29;20206;-70
2021/04/15 04:00:58;;;;;;;12.73;8.20;;;;;;;-0.57;100.00;102306.41;4877826;29;20288;-70
2021/04/15 04:03:28;;;;;;;13.63;8.90;;;;;;;-0.41;100.00;102309.13;4884629;29;20206;-70
2021/04/15 04:06:13;;;;;;;14.07;9.30;;;;;;;-0.47;100.00;102315.13;4881819;29;20224;-69
2021/04/15 04:08:46;;;;;;;13.07;9.10;;;;;;;-0.54;100.00;102314.09;4866085;29;20815;-71
2021/04/15 04:11:16;;;;;;;14.17;8.90;;;;;;;-0.54;100.00;102306.09;4897309;29;20295;-70
2021/04/15 04:13:48;;;;;;;13.83;9.07;;;;;;;-0.41;100.00;102312.63;4866728;29;20192;-70
2021/04/15 04:16:23;;;;;;;12.63;8.93;;;;;;;-0.38;100.00;102321.16;4875669;29;20251;-70
2021/04/15 04:19:16;;;;;;;15.90;9.40;;;;;;;-0.63;100.00;102317.72;4910116;29;20208;-70
2021/04/15 04:22:02;;;;;;;13.17;8.20;;;;;;;-0.71;100.00;102312.34;4913010;29;20893;-69
2021/04/15 04:24:57;;;;;;;13.23;8.23;;;;;;;-0.88;100.00;102313.28;4897075;29;20185;-71
2021/04/15 04:27:56;;;;;;;11.00;8.07;;;;;;;-0.84;100.00;102317.28;4895890;29;20247;-70
2021/04/15 04:30:49;;;;;;;12.40;8.70;;;;;;;-0.67;100.00;102317.19;4912108;29;20228;-70
2021/04/15 04:33:15;;;;;;;13.30;8.87;;;;;;;-0.70;100.00;102319.34;4897512;29;20226;-69
2021/04/15 04:35:43;;;;;;;14.07;8.60;;;;;;;-0.73;100.00;102319.69;4905459;29;20360;-70
2021/04/15 04:38:09;;;;;;;11.83;8.27;;;;;;;-0.79;100.00;102319.47;4912747;29;20189;-69
2021/04/15 04:40:43;;;;;;;13.37;9.87;;;;;;;-0.70;100.00;102324.66;4895498;29;20231;-70
2021/04/15 04:43:09;;;;;;;19.37;14.60;;;;;;;-0.76;100.00;102325.31;4894561;29;20200;-70
2021/04/15 04:45:35;;;;;;;12.63;9.40;;;;;;;-0.73;100.00;102331.16;4896259;29;20273;-71
2021/04/15 04:48:06;;;;;;;18.93;12.60;;;;;;;-0.68;100.00;102334.22;4894192;29;21100;-69
2021/04/15 04:50:43;;;;;;;12.77;9.20;;;;;;;-0.58;100.00;102328.75;4881241;29;20246;-70
2021/04/15 04:53:13;;;;;;;12.60;8.03;;;;;;;-0.54;100.00;102338.09;4896398;29;20176;-70
2021/04/15 04:55:44;;;;;;;12.43;8.60;;;;;;;-0.49;100.00;102335.78;4912016;29;20314;-69
2021/04/15 04:58:11;;;;;;;11.43;8.53;;;;;;;-0.44;100.00;102333.47;4881548;29;20196;-69
2021/04/15 05:00:54;;;;;;;11.23;8.20;;;;;;;-0.36;100.00;102340.50;4865689;29;20247;-68
2021/04/15 05:03:23;;;;;;;10.97;7.10;;;;;;;-0.39;100.00;102338.13;4866055;29;20196;-69
2021/04/15 05:05:49;;;;;;;11.13;7.00;;;;;;;-0.32;100.00;102344.50;4865907;29;20434;-69
2021/04/15 05:08:20;;;;;;;9.37;6.47;;;;;;;-0.13;100.00;102340.75;4880511;29;20212;-70
2021/04/15 05:10:46;;;;;;;10.50;7.83;;;;;;;0.01;100.00;102344.44;4880511;29;20242;-69
2021/04/15 05:13:18;;;;;;;8.67;7.43;;;;;;;0.17;100.00;102354.34;4912250;29;20655;-71
2021/04/15 05:15:44;;;;;;;10.47;8.27;;;;;;;0.34;100.00;102353.38;4894795;29;20228;-71
2021/04/15 05:18:16;;;;;;;11.57;7.70;;;;;;;0.46;100.00;102356.38;4875983;29;20197;-70
2021/04/15 05:20:42;;;;;;;9.67;7.20;;;;;;;0.55;100.00;102358.06;4860602;29;20695;-70
2021/04/15 05:23:33;;;;;;;12.97;9.17;;;;;;;0.33;100.00;102355.22;4909977;29;20192;-70
2021/04/15 05:26:02;;;;;;;12.23;7.47;;;;;;;0.44;100.00;102358.38;4911450;29;20223;-69
2021/04/15 05:28:29;;;;;;;10.03;8.03;;;;;;;0.63;100.00;102359.91;4908591;29;20189;-68
2021/04/15 05:30:54;;;;;;;11.53;7.80;;;;;;;0.65;100.00;102357.91;4876667;29;20274;-70
2021/04/15 05:33:22;;;;;;;11.47;8.37;;;;;;;0.77;100.00;102362.75;4876159;29;20204;-71
2021/04/15 05:35:52;;;;;;;10.27;8.70;;;;;;;0.69;100.00;102368.06;4861390;29;20259;-71
2021/04/15 05:38:20;;;;;;;9.53;8.13;;;;;;;0.97;100.00;102361.38;4889618;29;20271;-69
2021/04/15 05:40:47;;;;;;;10.57;8.23;;;;;;;1.01;100.00;102360.03;4914849;29;20722;-70
2021/04/15 05:43:30;;;;;;;10.27;7.90;;;;;;;1.17;100.00;102364.38;4882875;29;20189;-70
2021/04/15 05:46:09;;;;;;;11.97;7.50;;;;;;;1.12;100.00;102370.38;4899721;29;20263;-69
2021/04/15 05:48:35;;;;;;;10.13;8.17;;;;;;;1.24;100.00;102359.97;4869807;29;20639;-71
2021/04/15 05:51:03;;;;;;;10.07;7.43;;;;;;;1.41;100.00;102375.03;4899259;29;20449;-73
2021/04/15 05:53:37;;;;;;;11.97;7.53;;;;;;;1.44;100.00;102366.63;4904069;29;20193;-70
2021/04/15 05:56:20;;;;;;;9.80;7.40;;;;;;;1.58;100.00;102368.59;4916804;29;20833;-69
2021/04/15 05:59:11;;;;;;;8.60;6.73;;;;;;;1.54;100.00;102367.28;4901660;29;20205;-71
2021/04/15 06:01:45;;;;;;;8.17;7.20;;;;;;;1.74;100.00;102373.88;4917998;29;20724;-73
2021/04/15 06:04:37;;;;;;;9.60;7.03;;;;;;;1.87;100.00;102369.66;4887071;29;20682;-71
2021/04/15 06:07:03;;;;;;;8.77;7.27;;;;;;;2.04;100.00;102377.44;4916949;29;20274;-69
2021/04/15 06:09:29;;;;;;;8.30;7.40;;;;;;;2.17;100.00;102374.19;4916695;29;20695;-69
2021/04/15 06:12:17;;;;;;;8.70;6.57;;;;;;;2.26;100.00;102373.94;4884754;29;20275;-70
2021/04/15 06:14:48;;;;;;;8.83;7.07;;;;;;;2.46;100.00;102373.31;4900386;29;20655;-69
2021/04/15 06:17:29;;;;;;;7.93;6.63;;;;;;;2.46;100.00;102381.34;4900995;29;20247;-68
2021/04/15 06:19:59;;;;;;;10.67;7.27;;;;;;;2.54;100.00;102380.47;4918065;29;20267;-69
2021/04/15 06:22:26;;;;;;;9.77;7.10;;;;;;;2.87;100.00;102388.91;4900034;29;20307;-70
2021/04/15 06:25:00;;;;;;;9.80;6.97;;;;;;;2.93;100.00;102376.63;4900974;29;20204;-69
2021/04/15 06:27:26;;;;;;;7.80;6.97;;;;;;;2.85;100.00;102385.56;4884302;29;20716;-69
2021/04/15 06:30:02;;;;;;;8.37;7.50;;;;;;;2.97;100.00;102377.91;4900813;29;20200;-71
2021/04/15 06:32:39;;;;;;;9.00;7.70;;;;;;;3.23;100.00;102376.50;4886953;29;20219;-69
2021/04/15 06:35:07;;;;;;;10.27;7.73;;;;;;;3.43;100.00;102386.53;4916396;29;20184;-70
2021/04/15 06:37:47;;;;;;;10.20;8.30;;;;;;;3.69;100.00;102374.31;4869801;29;20287;-71
2021/04/15 06:40:21;;;;;;;8.40;7.43;;;;;;;3.72;100.00;102371.25;4869320;29;20208;-68
2021/04/15 06:42:56;;;;;;;9.30;7.77;;;;;;;3.76;100.00;102372.56;4916514;29;20192;-69
2021/04/15 06:45:32;;;;;;;11.47;7.83;;;;;;;4.08;100.00;102383.69;4900255;29;20643;-70
2021/04/15 06:48:05;;;;;;;10.77;7.37;;;;;;;4.25;100.00;102369.88;4900113;29;20823;-70
2021/04/15 06:51:08;;;;;;;9.07;7.10;;;;;;;4.38;100.00;102377.25;4883559;29;21308;-70
2021/04/15 06:53:56;;;;;;;8.47;7.43;;;;;;;4.60;100.00;102374.38;4901783;29;20184;-70
2021/04/15 06:56:40;;;;;;;8.23;7.30;;;;;;;4.86;100.00;102371.94;4916061;29;20259;-70
2021/04/15 06:59:11;;;;;;;9.90;7.17;;;;;;;4.97;100.00;102371.44;4916780;29;20204;-69
2021/04/15 07:02:09;;;;;;;8.50;7.57;;;;;;;5.32;100.00;102361.34;4883500;29;20232;-71
2021/04/15 07:04:49;;;;;;;8.13;7.23;;;;;;;5.49;100.00;102360.00;4858533;29;20215;-71
2021/04/15 07:07:24;;;;;;;7.83;6.13;;;;;;;5.62;100.00;102366.28;4867920;29;20239;-71
2021/04/15 07:09:56;;;;;;;7.80;5.50;;;;;;;5.85;100.00;102365.00;4884192;29;20212;-70
2021/04/15 07:12:45;;;;;;;7.17;5.13;;;;;;;5.99;100.00;102365.91;4913473;29;20786;-70
2021/04/15 07:15:35;;;;;;;7.20;4.23;;;;;;;6.19;100.00;102354.16;4898716;29;20191;-71
2021/04/15 07:18:39;;;;;;;6.10;4.20;;;;;;;6.23;99.48;102366.22;4916574;29;20195;-70
2021/04/15 07:21:26;;;;;;;5.20;3.80;;;;;;;6.14;92.54;102360.16;4913939;29;20236;-71
2021/04/15 07:24:12;;;;;;;5.20;3.57;;;;;;;6.15;87.75;102367.25;4915392;29;20576;-70
2021/04/15 07:27:01;;;;;;;5.93;3.67;;;;;;;6.28;87.45;102364.59;4916045;29;20224;-70
2021/04/15 07:29:41;;;;;;;4.80;3.57;;;;;;;6.33;86.17;102363.97;4886287;29;20743;-72
2021/04/15 07:32:22;;;;;;;6.40;3.60;;;;;;;6.41;85.65;102369.16;4897768;29;20240;-70
2021/04/15 07:35:01;;;;;;;4.23;3.33;;;;;;;6.67;86.25;102373.59;4916410;29;20188;-71
2021/04/15 07:37:58;;;;;;;4.37;3.40;;;;;;;6.62;83.57;102376.06;4914611;29;20279;-71
2021/04/15 07:40:44;;;;;;;4.60;3.00;;;;;;;6.73;80.89;102378.16;4915604;29;20358;-71
2021/04/15 07:43:48;;;;;;;5.47;3.30;;;;;;;6.67;81.88;102376.31;4883070;29;20590;-71
2021/04/15 07:46:45;;;;;;;6.40;3.23;;;;;;;6.94;78.95;102369.88;4898376;29;20335;-71
2021/04/15 07:49:23;;;;;;;5.33;2.97;;;;;;;7.00;78.24;102375.28;4883353;29;20303;-71
2021/04/15 07:51:56;;;;;;;4.73;2.93;;;;;;;7.20;77.95;102375.28;4913167;29;20227;-70
2021/04/15 07:54:32;;;;;;;3.60;2.53;;;;;;;7.35;78.50;102374.88;4883124;29;20198;-71
2021/04/15 07:57:11;;;;;;;6.90;3.10;;;;;;;7.41;73.27;102379.44;4882886;29;20307;-71
2021/04/15 08:00:05;;;;;;;2.97;2.10;;;;;;;7.31;66.67;102372.81;4882912;29;20622;-70
2021/04/15 08:02:41;;;;;;;3.97;2.00;;;;;;;7.65;68.72;102359.84;4912067;29;20216;-70
2021/04/15 08:05:15;;;;;;;4.40;2.00;;;;;;;7.68;63.15;102364.84;4897322;29;20626;-71
2021/04/15 08:08:14;;;;;;;3.27;1.90;;;;;;;8.05;60.72;102373.03;4898259;29;20239;-69
2021/04/15 08:11:08;;;;;;;2.57;1.57;;;;;;;7.76;57.05;102367.31;4913456;29;20224;-70
2021/04/15 08:14:12;;;;;;;4.27;1.50;;;;;;;7.74;56.37;102369.38;4883503;29;20180;-71
2021/04/15 08:17:07;;;;;;;3.53;1.60;;;;;;;8.16;58.12;102372.41;4896238;29;20251;-70
2021/04/15 08:19:59;;;;;;;2.43;1.50;;;;;;;8.06;55.15;102375.53;4914071;29;20212;-70
2021/04/15 08:22:49;;;;;;;2.17;1.40;;;;;;;8.15;54.90;102365.31;4866774;29;20240;-70
2021/04/15 08:25:24;;;;;;;2.03;1.40;;;;;;;7.89;51.23;102368.09;4912118;29;20838;-69
2021/04/15 08:28:05;;;;;;;3.03;1.43;;;;;;;7.98;53.41;102371.41;4881785;29;20574;-70
2021/04/15 08:31:08;;;;;;;1.77;1.60;;;;;;;8.38;53.17;102374.59;4881702;29;20231;-70
2021/04/15 08:33:57;;;;;;;2.43;1.60;;;;;;;8.60;54.37;102374.03;4913109;29;20225;-70
2021/04/15 08:36:43;;;;;;;1.67;1.40;;;;;;;8.68;52.70;102368.38;4867687;29;20737;-70
2021/04/15 08:39:21;;;;;;;3.90;1.80;;;;;;;8.57;52.22;102373.63;4912886;29;20208;-70
2021/04/15 08:42:11;;;;;;;1.60;1.37;;;;;;;8.45;49.57;102375.38;4912706;29;20307;-70
2021/04/15 08:44:50;;;;;;;2.30;1.50;;;;;;;8.50;50.77;102378.28;4897038;29;20188;-72
2021/04/15 08:47:20;;;;;;;1.87;1.50;;;;;;;8.59;49.83;102366.13;4896697;29;20259;-72
2021/04/15 08:50:25;;;;;;;4.23;1.70;;;;;;;8.62;50.39;102363.81;4880925;29;20220;-72
2021/04/15 08:52:54;;;;;;;2.77;1.63;;;;;;;8.88;50.86;102375.31;4898157;29;20216;-72
2021/04/15 08:55:38;;;;;;;2.47;1.60;;;;;;;9.15;50.32;102363.22;4919821;29;20220;-71
2021/04/15 08:58:07;;;;;;;1.30;1.10;;;;;;;8.95;46.88;102367.94;4903616;29;20200;-72
2021/04/15 09:00:44;;;;;;;3.17;1.20;;;;;;;8.85;46.54;102369.50;4921733;29;20695;-71
2021/04/15 09:03:35;;;;;;;1.83;1.07;;;;;;;9.00;46.95;102375.44;4922896;29;20184;-71
2021/04/15 09:06:25;;;;;;;1.30;1.10;;;;;;;9.30;45.93;102377.25;4884796;29;20232;-72
2021/04/15 09:09:05;;;;;;;0.80;0.80;;;;;;;9.10;45.42;102365.78;4914109;29;20628;-72
2021/04/15 09:11:52;;;;;;;2.70;1.27;;;;;;;9.15;46.26;102365.91;4883124;29;20743;-69
2021/04/15 09:14:41;;;;;;;1.20;1.00;;;;;;;9.03;45.46;102370.41;4917721;29;20180;-71
2021/04/15 09:17:12;;;;;;;1.00;0.80;;;;;;;9.26;46.83;102362.50;4917420;29;20307;-71
2021/04/15 09:20:04;;;;;;;2.00;1.10;;;;;;;9.22;45.33;102364.81;4870800;29;20713;-70
2021/04/15 09:22:58;;;;;;;1.67;1.10;;;;;;;9.43;44.62;102356.28;4884247;29;20232;-71
2021/04/15 09:25:26;;;;;;;1.70;1.00;;;;;;;9.16;44.22;102356.75;4900105;29;20220;-71
2021/04/15 09:28:17;;;;;;;1.77;1.00;;;;;;;9.30;44.79;102356.41;4916573;29;20199;-70
2021/04/15 09:31:15;;;;;;;1.50;0.93;;;;;;;9.35;44.39;102361.16;4891813;29;20228;-71
2021/04/15 09:34:07;;;;;;;1.80;0.97;;;;;;;9.51;43.63;102352.47;4917256;29;20215;-70
2021/04/15 09:37:21;;;;;;;1.10;1.00;;;;;;;9.38;44.25;102358.00;4880653;29;20247;-70
2021/04/15 09:39:59;;;;;;;1.50;1.20;;;;;;;9.80;46.83;102342.53;4851371;29;20781;-70
2021/04/15 09:43:01;;;;;;;1.70;1.20;;;;;;;10.06;46.12;102347.69;4883756;29;20236;-70
2021/04/15 09:45:41;;;;;;;1.20;0.83;;;;;;;9.84;41.58;102349.16;4915292;29;20231;-70
2021/04/15 09:48:23;;;;;;;0.80;0.80;;;;;;;10.12;42.82;102352.19;4884993;29;20193;-70
2021/04/15 09:50:54;;;;;;;1.00;0.90;;;;;;;9.59;39.11;102340.25;4884122;29;20238;-70
2021/04/15 09:53:53;;;;;;;1.10;0.73;;;;;;;9.34;39.84;102352.22;4899478;29;20188;-71
2021/04/15 09:56:44;;;;;;;1.67;0.63;;;;;;;9.04;40.11;102353.09;4916470;29;20361;-69
2021/04/15 09:59:48;;;;;;;1.10;1.00;;;;;;;9.43;40.34;102347.31;4916124;29;20227;-69
2021/04/15 10:02:56;;;;;;;1.20;0.90;;;;;;;10.03;40.05;102331.84;4898832;29;20657;-70
2021/04/15 10:05:40;;;;;;;0.80;0.80;;;;;;;9.68;40.19;102330.75;4886236;29;20195;-70
2021/04/15 10:08:27;;;;;;;1.33;1.07;;;;;;;9.43;40.15;102333.75;4884445;29;20229;-70
2021/04/15 10:11:09;;;;;;;1.37;0.90;;;;;;;9.25;38.84;102337.25;4915451;29;20239;-69
2021/04/15 10:13:41;;;;;;;1.43;0.77;;;;;;;9.40;40.90;102334.22;4883544;29;20192;-71
2021/04/15 10:16:22;;;;;;;0.70;0.70;;;;;;;9.32;39.64;102332.63;4898882;29;20237;-70
2021/04/15 10:19:16;;;;;;;1.60;0.80;;;;;;;9.61;40.85;102326.47;4915718;29;20220;-70
2021/04/15 10:22:06;;;;;;;2.73;0.90;;;;;;;9.79;39.44;102329.19;4915460;29;20231;-70
2021/04/15 10:24:38;;;;;;;1.53;0.90;;;;;;;9.93;38.39;102331.56;4915351;29;20188;-69
2021/04/15 10:27:37;;;;;;;1.10;0.93;;;;;;;9.81;39.26;102327.91;4868484;29;20228;-69
2021/04/15 10:30:12;;;;;;;0.73;0.73;;;;;;;9.79;39.86;102327.28;4886480;29;20223;-71
2021/04/15 10:33:02;;;;;;;1.53;1.00;;;;;;;9.59;38.92;102326.69;4911284;29;20225;-69
2021/04/15 10:36:12;;;;;;;0.80;0.80;;;;;;;9.98;40.26;102323.53;4865167;29;20228;-71
2021/04/15 10:38:52;;;;;;;2.47;0.70;;;;;;;10.18;39.54;102315.97;4842450;29;20723;-70
2021/04/15 10:41:55;;;;;;;0.80;0.70;;;;;;;9.96;38.93;102317.50;4848841;29;20224;-71
2021/04/15 10:44:36;;;;;;;1.00;0.70;;;;;;;9.75;38.51;102317.94;4896560;29;20842;-70
2021/04/15 10:47:36;;;;;;;1.00;0.80;;;;;;;9.67;39.73;102315.56;4895544;29;20232;-71
2021/04/15 10:50:31;;;;;;;2.33;0.90;;;;;;;9.69;38.96;102315.31;4879128;29;20657;-71
2021/04/15 10:53:13;;;;;;;1.77;0.73;;;;;;;10.45;38.48;102308.06;4879187;29;20574;-71
2021/04/15 10:55:46;;;;;;;0.60;0.60;;;;;;;10.61;37.41;102312.84;4863975;29;20807;-70
2021/04/15 10:58:35;;;;;;;1.60;0.70;;;;;;;10.39;35.72;102311.69;4865040;29;20677;-71
2021/04/15 11:01:31;;;;;;;1.03;0.70;;;;;;;10.48;36.84;102313.03;4895072;29;20240;-71
2021/04/15 11:04:09;;;;;;;0.73;0.70;;;;;;;10.28;37.13;102310.84;4895583;29;20186;-70
2021/04/15 11:06:58;;;;;;;0.77;0.60;;;;;;;9.88;36.38;102306.13;4880703;29;20611;-71
2021/04/15 11:09:33;;;;;;;1.63;0.70;;;;;;;9.83;36.86;102314.94;4849213;29;20228;-70
2021/04/15 11:12:13;;;;;;;1.47;0.70;;;;;;;9.59;38.71;102313.13;4847893;29;20567;-73
2021/04/15 11:14:53;;;;;;;0.80;0.80;;;;;;;9.77;39.86;102315.03;4895394;29;20193;-70
2021/04/15 11:17:23;;;;;;;1.03;0.70;;;;;;;10.00;39.08;102310.59;4865835;29;20341;-69
2021/04/15 11:19:49;;;;;;;0.90;0.77;;;;;;;10.09;40.38;102315.47;4849126;29;20691;-70
2021/04/15 11:22:29;;;;;;;1.23;0.80;;;;;;;10.16;38.26;102315.38;4878624;29;20260;-70
2021/04/15 11:25:16;;;;;;;0.83;0.80;;;;;;;10.23;38.09;102311.50;4880222;29;20188;-69
2021/04/15 11:27:42;;;;;;;0.57;0.57;;;;;;;10.33;38.36;102309.09;4894745;29;20359;-73
2021/04/15 11:30:08;;;;;;;3.30;0.80;;;;;;;10.03;40.21;102305.50;4878617;29;20718;-70
2021/04/15 11:32:34;;;;;;;0.93;0.70;;;;;;;10.03;40.17;102300.09;4848344;29;20212;-70
2021/04/15 11:35:09;;;;;;;2.17;0.80;;;;;;;10.27;40.85;102301.03;4895118;29;20224;-70
2021/04/15 11:37:36;;;;;;;1.00;0.70;;;;;;;10.19;41.40;102296.75;4878829;29;20296;-71
2021/04/15 11:40:25;;;;;;;1.13;0.80;;;;;;;10.14;39.20;102295.78;4849308;29;20206;-70
2021/04/15 11:42:51;;;;;;;2.43;0.70;;;;;;;10.64;39.84;102293.38;4849439;29;20225;-71
2021/04/15 11:45:33;;;;;;;1.03;0.70;;;;;;;11.12;37.68;102280.41;4864820;29;20185;-71
2021/04/15 11:48:27;;;;;;;1.07;0.77;;;;;;;11.23;37.57;102278.53;4851284;29;20220;-72
2021/04/15 11:51:15;;;;;;;1.33;0.80;;;;;;;11.44;38.25;102272.50;4881026;29;20236;-70
2021/04/15 11:53:57;;;;;;;0.77;0.77;;;;;;;11.11;37.02;102268.72;4848978;29;20211;-70
2021/04/15 11:56:23;;;;;;;1.80;1.03;;;;;;;10.80;38.44;102271.78;4864131;29;20229;-68
2021/04/15 11:58:54;;;;;;;0.80;0.80;;;;;;;10.34;38.10;102288.19;4895294;29;20217;-67
2021/04/15 12:01:26;;;;;;;0.60;0.60;;;;;;;9.91;39.60;102290.25;4879636;29;20232;-68
2021/04/15 12:03:59;;;;;;;1.00;0.60;;;;;;;9.79;40.54;102292.00;4864038;29;20567;-70
2021/04/15 12:06:30;;;;;;;1.17;0.70;;;;;;;9.99;39.44;102289.91;4864071;29;20288;-71
2021/04/15 12:08:58;;;;;;;0.87;0.87;;;;;;;9.65;40.62;102290.53;4909681;29;20212;-69
2021/04/15 12:11:32;;;;;;;0.77;0.70;;;;;;;10.15;39.98;102289.31;4913257;29;20228;-69
2021/04/15 12:14:01;;;;;;;1.17;0.50;;;;;;;10.18;37.84;102294.25;4881884;29;20251;-70
2021/04/15 12:17:01;;;;;;;1.07;0.70;;;;;;;10.04;36.73;102290.06;4897311;29;20224;-70